createdAt,value
2022-10-14T00:04:30.256Z,7.21
2022-10-14T00:09:33.700Z,7.12
2022-10-14T00:14:37.964Z,7.09
2022-10-14T00:19:42.765Z,7.06
2022-10-14T00:24:46.181Z,7.04
2022-10-14T00:29:50.166Z,6.99
2022-10-14T00:34:55.316Z,6.90
2022-10-14T00:40:00.139Z,6.83
2022-10-14T00:45:15.096Z,6.81
2022-10-14T00:50:21.689Z,6.79
2022-10-14T00:55:27.054Z,6.75
2022-10-14T01:00:30.674Z,6.71
2022-10-14T01:05:44.117Z,6.72
2022-10-14T01:10:54.061Z,6.64
2022-10-14T01:16:09.730Z,6.61
2022-10-14T01:21:29.617Z,6.58
2022-10-14T01:27:06.097Z,6.57
2022-10-14T01:32:17.910Z,6.60
2022-10-14T01:37:27.108Z,6.58
2022-10-14T01:42:35.844Z,6.48
2022-10-14T01:47:41.799Z,6.39
2022-10-14T01:52:54.366Z,6.31
2022-10-14T01:58:00.577Z,6.25
2022-10-14T02:03:04.848Z,6.22
2022-10-14T02:08:26.725Z,6.20
2022-10-14T02:13:45.386Z,6.14
2022-10-14T02:19:10.028Z,6.23
2022-10-14T02:24:25.680Z,6.35
2022-10-14T02:29:31.327Z,6.50
2022-10-14T02:34:37.725Z,6.65
2022-10-14T02:39:48.138Z,6.81
2022-10-14T02:44:59.802Z,6.90
2022-10-14T02:50:04.648Z,6.93
2022-10-14T02:55:09.625Z,6.94
2022-10-14T03:00:18.268Z,6.84
2022-10-14T03:05:21.798Z,6.68
2022-10-14T03:10:25.475Z,6.58
2022-10-14T03:15:29.629Z,6.47
2022-10-14T03:20:32.889Z,6.42
2022-10-14T03:25:37.049Z,6.47
2022-10-14T03:30:41.629Z,6.48
2022-10-14T03:35:45.452Z,6.53
2022-10-14T03:40:48.952Z,6.65
2022-10-14T03:45:52.592Z,6.83
2022-10-14T03:50:56.687Z,6.89
2022-10-14T03:56:00.057Z,6.93
2022-10-14T04:01:04.130Z,7.04
2022-10-14T04:06:07.324Z,7.13
2022-10-14T04:11:10.875Z,7.21
2022-10-14T04:16:14.623Z,7.15
2022-10-14T04:21:18.541Z,7.11
2022-10-14T04:26:22.044Z,7.10
2022-10-14T04:31:25.926Z,7.14
2022-10-14T04:36:29.892Z,7.21
2022-10-14T04:41:33.787Z,7.25
2022-10-14T04:46:37.787Z,7.22
2022-10-14T04:51:41.495Z,7.18
2022-10-14T04:56:45.657Z,7.16
2022-10-14T05:01:49.848Z,7.19
2022-10-14T05:06:54.021Z,7.29
2022-10-14T05:11:59.172Z,7.36
2022-10-14T05:17:03.813Z,7.41
2022-10-14T05:22:08.047Z,7.28
2022-10-14T05:27:12.418Z,7.27
2022-10-14T05:32:17.492Z,7.37
2022-10-14T05:37:21.495Z,7.28
2022-10-14T05:42:26.101Z,7.15
2022-10-14T05:47:30.233Z,7.24
2022-10-14T05:52:35.544Z,7.28
2022-10-14T05:57:39.968Z,7.27
2022-10-14T06:02:43.261Z,7.40
2022-10-14T06:07:47.892Z,7.64
2022-10-14T06:12:51.995Z,7.92
2022-10-14T06:17:56.463Z,8.12
2022-10-14T06:23:00.475Z,8.27
2022-10-14T06:28:06.268Z,8.49
2022-10-14T06:33:09.866Z,8.67
2022-10-14T06:38:14.111Z,8.80
2022-10-14T06:43:18.465Z,8.93
2022-10-14T06:48:23.518Z,8.97
2022-10-14T06:53:28.591Z,9.16
2022-10-14T06:58:33.505Z,9.71
2022-10-14T07:03:40.453Z,10.46
2022-10-14T07:08:44.700Z,11.09
2022-10-14T07:13:49.160Z,11.97
2022-10-14T07:18:53.619Z,12.55
2022-10-14T07:23:57.731Z,12.78
2022-10-14T07:29:04.949Z,13.24
2022-10-14T07:34:08.437Z,13.70
2022-10-14T07:39:12.232Z,13.86
2022-10-14T07:44:17.665Z,13.90
2022-10-14T07:49:23.754Z,13.95
2022-10-14T07:54:30.564Z,14.03
2022-10-14T07:59:34.700Z,13.94
2022-10-14T08:04:38.876Z,13.84
2022-10-14T08:09:44.196Z,14.16
2022-10-14T08:14:48.387Z,14.41
2022-10-14T08:19:51.667Z,14.62
2022-10-14T08:24:55.226Z,14.80
2022-10-14T08:29:59.153Z,14.83
2022-10-14T08:35:02.382Z,15.06
2022-10-14T08:40:06.707Z,15.34
2022-10-14T08:45:19.352Z,15.41
2022-10-14T08:50:25.638Z,15.28
2022-10-14T08:55:56.968Z,15.39
2022-10-14T09:01:23.989Z,15.77
2022-10-14T09:06:34.333Z,16.02
2022-10-14T09:11:43.617Z,16.11
2022-10-14T09:16:53.465Z,16.08
2022-10-14T09:22:01.954Z,16.40
2022-10-14T09:27:12.215Z,16.63
2022-10-14T09:32:28.375Z,16.71
2022-10-14T09:37:36.947Z,16.76
2022-10-14T09:42:59.091Z,16.67
2022-10-14T09:48:09.240Z,16.72
2022-10-14T09:53:33.848Z,17.04
2022-10-14T09:58:48.740Z,17.29
2022-10-14T10:03:54.263Z,17.25
2022-10-14T10:09:01.008Z,17.19
2022-10-14T10:14:31.132Z,17.18
2022-10-14T10:19:39.947Z,17.25
2022-10-14T10:24:48.344Z,17.13
2022-10-14T10:29:52.626Z,16.96
2022-10-14T10:35:27.789Z,17.09
2022-10-14T10:40:52.209Z,17.42
2022-10-14T10:46:29.094Z,17.65
2022-10-14T10:51:36.289Z,17.85
2022-10-14T10:56:53.821Z,17.99
2022-10-14T11:02:38.558Z,18.03
2022-10-14T11:08:16.357Z,18.40
2022-10-14T11:13:48.840Z,18.97
2022-10-14T11:19:19.424Z,19.29
2022-10-14T11:24:42.428Z,19.53
2022-10-14T11:30:19.564Z,19.58
2022-10-14T11:35:55.097Z,19.72
2022-10-14T11:41:05.364Z,19.73
2022-10-14T11:46:17.491Z,19.82
2022-10-14T11:51:53.997Z,19.82
2022-10-14T11:57:09.451Z,19.55
2022-10-14T12:02:29.266Z,19.10
2022-10-14T12:07:40.423Z,18.81
2022-10-14T12:12:45.660Z,18.47
2022-10-14T12:18:08.939Z,18.28
2022-10-14T12:23:49.064Z,18.12
2022-10-14T12:28:54.961Z,17.95
2022-10-14T12:34:30.928Z,17.92
2022-10-14T12:39:42.842Z,18.03
2022-10-14T12:44:57.827Z,18.25
2022-10-14T12:50:05.835Z,18.29
2022-10-14T12:55:18.385Z,18.32
2022-10-14T13:00:22.802Z,18.43
2022-10-14T13:05:42.335Z,18.58
2022-10-14T13:10:47.469Z,18.70
2022-10-14T13:15:52.121Z,18.81
2022-10-14T13:20:55.681Z,18.73
2022-10-14T13:26:07.406Z,18.46
2022-10-14T13:31:22.930Z,18.27
2022-10-14T13:36:43.589Z,18.16
2022-10-14T13:41:48.856Z,18.09
2022-10-14T13:46:54.099Z,18.11
2022-10-14T13:52:03.314Z,18.14
2022-10-14T14:02:42.763Z,18.31
2022-10-14T14:13:15.177Z,18.36
2022-10-14T14:18:55.808Z,18.20
2022-10-14T14:24:16.631Z,18.13
2022-10-14T14:29:23.110Z,18.03
2022-10-14T14:34:27.717Z,17.91
2022-10-14T14:39:31.190Z,17.73
2022-10-14T14:44:36.418Z,17.60
2022-10-14T14:49:43.560Z,17.45
2022-10-14T14:54:48.444Z,17.28
2022-10-14T15:00:08.106Z,17.15
2022-10-14T15:05:13.719Z,16.96
2022-10-14T15:10:28.991Z,16.78
2022-10-14T15:15:34.841Z,16.57
2022-10-14T15:20:38.667Z,16.34
2022-10-14T15:25:43.317Z,16.10
2022-10-14T15:30:59.061Z,15.89
2022-10-14T15:36:06.459Z,15.64
2022-10-14T15:41:11.270Z,15.38
2022-10-14T15:46:34.268Z,15.14
2022-10-14T15:51:38.435Z,14.68
2022-10-14T15:56:42.707Z,14.35
2022-10-14T16:01:47.676Z,14.11
2022-10-14T16:06:55.985Z,13.95
2022-10-14T16:12:00.682Z,13.80
2022-10-14T16:17:06.308Z,13.66
2022-10-14T16:22:10.878Z,13.51
2022-10-14T16:27:15.810Z,13.37
2022-10-14T16:32:20.390Z,13.13
2022-10-14T16:37:27.962Z,12.82
2022-10-14T16:42:32.225Z,12.52
2022-10-14T16:47:39.183Z,12.37
2022-10-14T16:53:06.248Z,12.24
2022-10-14T16:58:13.892Z,11.94
2022-10-14T17:03:19.132Z,11.58
2022-10-14T17:08:24.038Z,11.45
2022-10-14T17:13:28.682Z,11.46
2022-10-14T17:18:35.467Z,11.42
2022-10-14T17:23:42.700Z,11.25
2022-10-14T17:28:48.882Z,11.05
2022-10-14T17:33:53.814Z,10.85
2022-10-14T17:38:58.641Z,10.66
2022-10-14T17:44:03.283Z,10.59
2022-10-14T17:49:10.376Z,10.59
2022-10-14T17:54:14.078Z,10.46
2022-10-14T17:59:17.903Z,10.38
2022-10-14T18:04:22.142Z,10.35
2022-10-14T18:09:26.968Z,10.29
2022-10-14T18:14:30.918Z,10.26
2022-10-14T18:19:34.363Z,10.29
2022-10-14T18:24:40.648Z,10.32
2022-10-14T18:29:45.293Z,10.43
2022-10-14T18:34:49.299Z,10.54
2022-10-14T18:39:53.144Z,10.53
2022-10-14T18:44:56.837Z,10.57
2022-10-14T18:55:07.995Z,10.68
2022-10-14T19:00:17.057Z,10.68
2022-10-14T19:05:23.214Z,10.69
2022-10-14T19:10:30.661Z,10.68
2022-10-14T19:15:46.867Z,10.65
2022-10-14T19:20:57.946Z,10.68
2022-10-14T19:31:34.306Z,10.88
2022-10-14T19:36:41.787Z,10.94
2022-10-14T19:41:47.896Z,10.99
2022-10-14T19:46:52.853Z,11.00
2022-10-14T19:51:56.419Z,10.98
2022-10-14T19:57:01.273Z,10.96
2022-10-14T20:02:07.336Z,10.97
2022-10-14T20:07:15.249Z,10.92
2022-10-14T20:12:25.407Z,10.82
2022-10-14T20:17:35.757Z,10.71
2022-10-14T20:28:06.891Z,10.38
2022-10-14T20:33:10.954Z,10.18
2022-10-14T20:38:14.838Z,10.16
2022-10-14T20:43:18.748Z,10.19
2022-10-14T20:48:22.534Z,10.26
2022-10-14T20:53:26.851Z,10.32
2022-10-14T20:58:30.261Z,10.36
2022-10-14T21:03:33.858Z,10.36
2022-10-14T21:08:39.366Z,10.37
2022-10-14T21:13:48.141Z,10.40
2022-10-14T21:18:57.938Z,10.42
2022-10-14T21:24:01.478Z,10.40
2022-10-14T21:29:05.956Z,10.30
2022-10-14T21:34:11.104Z,10.26
2022-10-14T21:39:16.775Z,10.23
2022-10-14T21:44:21.850Z,10.22
2022-10-14T21:49:25.632Z,10.17
2022-10-14T21:54:29.803Z,10.12
2022-10-14T21:59:33.988Z,10.07
2022-10-14T22:04:38.650Z,10.15
2022-10-14T22:09:43.132Z,10.17
2022-10-14T22:14:47.426Z,10.05
2022-10-14T22:19:51.434Z,9.97
2022-10-14T22:24:55.334Z,9.99
2022-10-14T22:30:00.176Z,9.97
2022-10-14T22:35:03.595Z,9.95
2022-10-14T22:40:07.098Z,9.97
2022-10-14T22:45:10.908Z,10.00
2022-10-14T22:50:17.077Z,10.05
2022-10-14T22:55:20.863Z,10.13
2022-10-14T23:00:25.443Z,10.17
2022-10-14T23:05:28.763Z,10.14
2022-10-14T23:10:32.707Z,10.10
2022-10-14T23:15:38.546Z,10.07
2022-10-14T23:20:42.915Z,10.08
2022-10-14T23:25:46.692Z,10.07
2022-10-14T23:30:51.057Z,10.02
2022-10-14T23:35:56.132Z,10.02
2022-10-14T23:41:02.586Z,10.01
2022-10-14T23:46:10.693Z,10.01
2022-10-14T23:51:14.975Z,10.00
2022-10-14T23:56:19.845Z,10.03
